Northport, Michigan
Current Conditions -  °F | °C
As of 5:15 PM on Saturday 20 Dec 2014 (Local Time) from KCVX Reporting Station
Overcast Overcast  
Wind Chill: 21°   Ceiling: 2300
Heat Index: 28°   Visibility: 10mi
Dew Point: 23°   Wind: 7mph
Humidity: 82%   Direction: 120°ESE
Pressure: 30.29"   Gusts: NA
Location:  45.13°N, 85.62°W
Report Text: KCVX 202215Z AUTO 12006KT 10SM OVC023 M02/M05 A3029 RMK AO2 T10211048
Loading
Personal Weather Stations






























Interactive Weather Map New forecast layout! Learn more

10-Day Weather Forecast

Advertisements
Track Severe Weather on mobile